sensor_id;sensor_type;location;lat;lon;timestamp;P1;durP1;ratioP1;P2;durP2;ratioP2
4323;SDS011;2175;51.018;6.994;2023-11-21T00:00:12;19.10;;;9.90;;
4323;SDS011;2175;51.018;6.994;2023-11-21T00:02:39;16.87;;;10.97;;
4323;SDS011;2175;51.018;6.994;2023-11-21T00:05:09;24.20;;;10.70;;
4323;SDS011;2175;51.018;6.994;2023-11-21T00:07:36;17.87;;;10.60;;
4323;SDS011;2175;51.018;6.994;2023-11-21T00:10:02;21.70;;;11.17;;
4323;SDS011;2175;51.018;6.994;2023-11-21T00:12:30;20.20;;;10.67;;
4323;SDS011;2175;51.018;6.994;2023-11-21T00:14:56;15.23;;;10.43;;
4323;SDS011;2175;51.018;6.994;2023-11-21T00:17:22;21.67;;;10.80;;
4323;SDS011;2175;51.018;6.994;2023-11-21T00:19:49;17.63;;;10.13;;
4323;SDS011;2175;51.018;6.994;2023-11-21T00:22:17;18.67;;;11.77;;
4323;SDS011;2175;51.018;6.994;2023-11-21T00:24:43;21.63;;;11.10;;
4323;SDS011;2175;51.018;6.994;2023-11-21T00:27:09;22.13;;;11.40;;
4323;SDS011;2175;51.018;6.994;2023-11-21T00:29:35;19.93;;;10.70;;
4323;SDS011;2175;51.018;6.994;2023-11-21T00:32:01;18.00;;;11.37;;
4323;SDS011;2175;51.018;6.994;2023-11-21T00:34:27;20.33;;;12.57;;
4323;SDS011;2175;51.018;6.994;2023-11-21T00:36:54;19.87;;;11.73;;
4323;SDS011;2175;51.018;6.994;2023-11-21T00:39:20;20.17;;;13.03;;
4323;SDS011;2175;51.018;6.994;2023-11-21T00:41:46;16.13;;;10.80;;
4323;SDS011;2175;51.018;6.994;2023-11-21T00:44:13;23.30;;;12.10;;
4323;SDS011;2175;51.018;6.994;2023-11-21T00:46:39;19.83;;;12.33;;
4323;SDS011;2175;51.018;6.994;2023-11-21T00:49:05;16.77;;;11.80;;
4323;SDS011;2175;51.018;6.994;2023-11-21T00:51:31;22.63;;;11.60;;
4323;SDS011;2175;51.018;6.994;2023-11-21T00:53:57;24.27;;;11.90;;
4323;SDS011;2175;51.018;6.994;2023-11-21T00:56:24;20.83;;;11.83;;
4323;SDS011;2175;51.018;6.994;2023-11-21T00:58:50;21.33;;;12.77;;
4323;SDS011;2175;51.018;6.994;2023-11-21T01:01:17;24.77;;;13.03;;
4323;SDS011;2175;51.018;6.994;2023-11-21T01:03:43;21.43;;;12.70;;
4323;SDS011;2175;51.018;6.994;2023-11-21T01:06:11;23.33;;;12.00;;
4323;SDS011;2175;51.018;6.994;2023-11-21T01:08:37;17.97;;;12.63;;
4323;SDS011;2175;51.018;6.994;2023-11-21T01:11:03;22.77;;;12.07;;
4323;SDS011;2175;51.018;6.994;2023-11-21T01:13:32;19.30;;;12.83;;
4323;SDS011;2175;51.018;6.994;2023-11-21T01:15:58;25.30;;;12.23;;
4323;SDS011;2175;51.018;6.994;2023-11-21T01:18:24;19.20;;;12.43;;
4323;SDS011;2175;51.018;6.994;2023-11-21T01:20:50;19.33;;;13.23;;
4323;SDS011;2175;51.018;6.994;2023-11-21T01:23:18;23.67;;;13.67;;
4323;SDS011;2175;51.018;6.994;2023-11-21T01:25:44;22.07;;;13.40;;
4323;SDS011;2175;51.018;6.994;2023-11-21T01:28:10;28.97;;;13.27;;
4323;SDS011;2175;51.018;6.994;2023-11-21T01:30:37;18.40;;;12.03;;
4323;SDS011;2175;51.018;6.994;2023-11-21T01:33:03;20.57;;;12.73;;
4323;SDS011;2175;51.018;6.994;2023-11-21T01:35:29;22.43;;;12.37;;
4323;SDS011;2175;51.018;6.994;2023-11-21T01:37:55;22.67;;;13.27;;
4323;SDS011;2175;51.018;6.994;2023-11-21T01:40:21;26.37;;;11.90;;
4323;SDS011;2175;51.018;6.994;2023-11-21T01:42:47;20.40;;;12.77;;
4323;SDS011;2175;51.018;6.994;2023-11-21T01:45:13;25.70;;;12.20;;
4323;SDS011;2175;51.018;6.994;2023-11-21T01:47:40;24.67;;;12.30;;
4323;SDS011;2175;51.018;6.994;2023-11-21T01:50:07;22.10;;;12.60;;
4323;SDS011;2175;51.018;6.994;2023-11-21T01:52:34;24.40;;;12.83;;
4323;SDS011;2175;51.018;6.994;2023-11-21T01:55:01;21.60;;;12.40;;
4323;SDS011;2175;51.018;6.994;2023-11-21T01:57:27;23.10;;;13.20;;
4323;SDS011;2175;51.018;6.994;2023-11-21T01:59:54;23.40;;;13.27;;
4323;SDS011;2175;51.018;6.994;2023-11-21T02:02:20;17.63;;;11.90;;
4323;SDS011;2175;51.018;6.994;2023-11-21T02:04:46;19.13;;;12.60;;
4323;SDS011;2175;51.018;6.994;2023-11-21T02:09:48;24.23;;;13.93;;
4323;SDS011;2175;51.018;6.994;2023-11-21T02:12:14;18.97;;;12.47;;
4323;SDS011;2175;51.018;6.994;2023-11-21T02:14:41;20.27;;;13.03;;
4323;SDS011;2175;51.018;6.994;2023-11-21T02:17:07;24.50;;;13.60;;
4323;SDS011;2175;51.018;6.994;2023-11-21T02:19:33;31.23;;;13.53;;
4323;SDS011;2175;51.018;6.994;2023-11-21T02:21:59;26.77;;;16.07;;
4323;SDS011;2175;51.018;6.994;2023-11-21T02:24:28;26.20;;;15.30;;
4323;SDS011;2175;51.018;6.994;2023-11-21T02:26:54;26.87;;;15.20;;
4323;SDS011;2175;51.018;6.994;2023-11-21T02:29:21;24.50;;;14.80;;
4323;SDS011;2175;51.018;6.994;2023-11-21T02:31:48;26.00;;;15.30;;
4323;SDS011;2175;51.018;6.994;2023-11-21T02:34:14;27.87;;;16.80;;
4323;SDS011;2175;51.018;6.994;2023-11-21T02:36:41;26.70;;;17.50;;
4323;SDS011;2175;51.018;6.994;2023-11-21T02:39:07;29.87;;;17.33;;
4323;SDS011;2175;51.018;6.994;2023-11-21T02:41:33;27.87;;;15.27;;
4323;SDS011;2175;51.018;6.994;2023-11-21T02:43:59;29.13;;;16.90;;
4323;SDS011;2175;51.018;6.994;2023-11-21T02:46:25;26.37;;;16.77;;
4323;SDS011;2175;51.018;6.994;2023-11-21T02:48:52;33.80;;;17.70;;
4323;SDS011;2175;51.018;6.994;2023-11-21T02:51:21;29.17;;;18.07;;
4323;SDS011;2175;51.018;6.994;2023-11-21T02:53:47;27.13;;;16.97;;
4323;SDS011;2175;51.018;6.994;2023-11-21T02:56:14;30.57;;;17.03;;
4323;SDS011;2175;51.018;6.994;2023-11-21T02:58:43;33.53;;;17.03;;
4323;SDS011;2175;51.018;6.994;2023-11-21T03:01:10;23.87;;;15.43;;
4323;SDS011;2175;51.018;6.994;2023-11-21T03:03:36;29.03;;;16.17;;
4323;SDS011;2175;51.018;6.994;2023-11-21T03:06:05;27.97;;;15.97;;
4323;SDS011;2175;51.018;6.994;2023-11-21T03:08:31;29.80;;;17.07;;
4323;SDS011;2175;51.018;6.994;2023-11-21T03:10:57;35.60;;;16.77;;
4323;SDS011;2175;51.018;6.994;2023-11-21T03:13:23;26.73;;;16.60;;
4323;SDS011;2175;51.018;6.994;2023-11-21T03:15:49;26.47;;;15.80;;
4323;SDS011;2175;51.018;6.994;2023-11-21T03:18:15;28.27;;;16.57;;
4323;SDS011;2175;51.018;6.994;2023-11-21T03:20:43;21.20;;;14.93;;
4323;SDS011;2175;51.018;6.994;2023-11-21T03:23:11;28.53;;;15.10;;
4323;SDS011;2175;51.018;6.994;2023-11-21T03:25:37;22.47;;;15.30;;
4323;SDS011;2175;51.018;6.994;2023-11-21T03:28:03;28.30;;;15.97;;
4323;SDS011;2175;51.018;6.994;2023-11-21T03:30:29;33.87;;;16.00;;
4323;SDS011;2175;51.018;6.994;2023-11-21T03:32:55;31.10;;;17.37;;
4323;SDS011;2175;51.018;6.994;2023-11-21T03:35:21;25.43;;;15.47;;
4323;SDS011;2175;51.018;6.994;2023-11-21T03:37:48;27.03;;;16.10;;
4323;SDS011;2175;51.018;6.994;2023-11-21T03:40:14;31.63;;;14.80;;
4323;SDS011;2175;51.018;6.994;2023-11-21T03:42:40;29.60;;;14.80;;
4323;SDS011;2175;51.018;6.994;2023-11-21T03:45:07;29.10;;;16.90;;
4323;SDS011;2175;51.018;6.994;2023-11-21T03:47:33;36.57;;;18.70;;
4323;SDS011;2175;51.018;6.994;2023-11-21T03:49:59;28.90;;;16.53;;
4323;SDS011;2175;51.018;6.994;2023-11-21T03:52:25;33.30;;;16.97;;
4323;SDS011;2175;51.018;6.994;2023-11-21T03:54:53;31.80;;;14.50;;
4323;SDS011;2175;51.018;6.994;2023-11-21T03:57:20;28.13;;;16.33;;
4323;SDS011;2175;51.018;6.994;2023-11-21T03:59:46;37.00;;;17.27;;
4323;SDS011;2175;51.018;6.994;2023-11-21T04:02:12;32.27;;;16.80;;
4323;SDS011;2175;51.018;6.994;2023-11-21T04:04:38;35.50;;;18.10;;
4323;SDS011;2175;51.018;6.994;2023-11-21T04:07:04;30.57;;;14.83;;
4323;SDS011;2175;51.018;6.994;2023-11-21T04:09:30;30.00;;;14.00;;
4323;SDS011;2175;51.018;6.994;2023-11-21T04:11:56;24.60;;;13.83;;
4323;SDS011;2175;51.018;6.994;2023-11-21T04:14:22;25.40;;;14.30;;
4323;SDS011;2175;51.018;6.994;2023-11-21T04:16:48;28.07;;;13.63;;
4323;SDS011;2175;51.018;6.994;2023-11-21T04:19:14;32.60;;;13.93;;
4323;SDS011;2175;51.018;6.994;2023-11-21T04:21:41;22.27;;;13.67;;
4323;SDS011;2175;51.018;6.994;2023-11-21T04:24:07;29.87;;;14.83;;
4323;SDS011;2175;51.018;6.994;2023-11-21T04:26:33;27.50;;;14.60;;
4323;SDS011;2175;51.018;6.994;2023-11-21T04:28:59;26.13;;;14.30;;
4323;SDS011;2175;51.018;6.994;2023-11-21T04:31:25;26.60;;;13.60;;
4323;SDS011;2175;51.018;6.994;2023-11-21T04:33:51;25.53;;;14.07;;
4323;SDS011;2175;51.018;6.994;2023-11-21T04:36:17;21.13;;;13.30;;
4323;SDS011;2175;51.018;6.994;2023-11-21T04:41:20;22.63;;;13.20;;
4323;SDS011;2175;51.018;6.994;2023-11-21T04:43:46;24.70;;;13.30;;
4323;SDS011;2175;51.018;6.994;2023-11-21T04:46:12;25.27;;;14.30;;
4323;SDS011;2175;51.018;6.994;2023-11-21T04:48:38;22.87;;;13.43;;
4323;SDS011;2175;51.018;6.994;2023-11-21T04:51:04;24.43;;;13.90;;
4323;SDS011;2175;51.018;6.994;2023-11-21T04:53:30;35.47;;;14.10;;
4323;SDS011;2175;51.018;6.994;2023-11-21T04:55:56;26.93;;;13.83;;
4323;SDS011;2175;51.018;6.994;2023-11-21T04:58:22;24.13;;;14.10;;
4323;SDS011;2175;51.018;6.994;2023-11-21T05:00:49;24.63;;;14.00;;
4323;SDS011;2175;51.018;6.994;2023-11-21T05:03:15;26.00;;;14.70;;
4323;SDS011;2175;51.018;6.994;2023-11-21T05:05:41;27.70;;;15.63;;
4323;SDS011;2175;51.018;6.994;2023-11-21T05:08:07;25.97;;;16.37;;
4323;SDS011;2175;51.018;6.994;2023-11-21T05:10:33;29.70;;;15.70;;
4323;SDS011;2175;51.018;6.994;2023-11-21T05:12:59;27.50;;;15.70;;
4323;SDS011;2175;51.018;6.994;2023-11-21T05:15:25;23.63;;;15.23;;
4323;SDS011;2175;51.018;6.994;2023-11-21T05:17:52;32.03;;;15.73;;
4323;SDS011;2175;51.018;6.994;2023-11-21T05:20:25;23.20;;;14.47;;
4323;SDS011;2175;51.018;6.994;2023-11-21T05:22:58;26.33;;;14.63;;
4323;SDS011;2175;51.018;6.994;2023-11-21T05:25:24;26.47;;;14.43;;
4323;SDS011;2175;51.018;6.994;2023-11-21T05:27:49;21.80;;;15.07;;
4323;SDS011;2175;51.018;6.994;2023-11-21T05:30:15;29.70;;;14.70;;
4323;SDS011;2175;51.018;6.994;2023-11-21T05:32:41;25.60;;;14.60;;
4323;SDS011;2175;51.018;6.994;2023-11-21T05:35:08;21.17;;;13.63;;
4323;SDS011;2175;51.018;6.994;2023-11-21T05:37:40;25.70;;;15.13;;
4323;SDS011;2175;51.018;6.994;2023-11-21T05:40:07;24.40;;;15.00;;
4323;SDS011;2175;51.018;6.994;2023-11-21T05:42:33;23.27;;;13.30;;
4323;SDS011;2175;51.018;6.994;2023-11-21T05:44:59;27.60;;;14.67;;
4323;SDS011;2175;51.018;6.994;2023-11-21T05:47:35;24.13;;;14.60;;
4323;SDS011;2175;51.018;6.994;2023-11-21T05:50:02;25.80;;;13.70;;
4323;SDS011;2175;51.018;6.994;2023-11-21T05:52:28;23.07;;;13.83;;
4323;SDS011;2175;51.018;6.994;2023-11-21T05:54:55;22.90;;;14.57;;
4323;SDS011;2175;51.018;6.994;2023-11-21T05:57:21;31.10;;;15.77;;
4323;SDS011;2175;51.018;6.994;2023-11-21T05:59:47;26.87;;;14.70;;
4323;SDS011;2175;51.018;6.994;2023-11-21T06:02:13;25.90;;;14.97;;
4323;SDS011;2175;51.018;6.994;2023-11-21T06:04:39;26.03;;;15.33;;
4323;SDS011;2175;51.018;6.994;2023-11-21T06:07:05;25.30;;;16.03;;
4323;SDS011;2175;51.018;6.994;2023-11-21T06:09:33;32.27;;;15.47;;
4323;SDS011;2175;51.018;6.994;2023-11-21T06:11:59;27.27;;;16.67;;
4323;SDS011;2175;51.018;6.994;2023-11-21T06:14:25;35.07;;;16.20;;
4323;SDS011;2175;51.018;6.994;2023-11-21T06:16:51;30.00;;;17.27;;
4323;SDS011;2175;51.018;6.994;2023-11-21T06:19:17;27.07;;;17.17;;
4323;SDS011;2175;51.018;6.994;2023-11-21T06:21:47;32.63;;;17.30;;
4323;SDS011;2175;51.018;6.994;2023-11-21T06:24:13;29.73;;;17.00;;
4323;SDS011;2175;51.018;6.994;2023-11-21T06:26:40;30.27;;;19.60;;
4323;SDS011;2175;51.018;6.994;2023-11-21T06:29:06;32.00;;;18.13;;
4323;SDS011;2175;51.018;6.994;2023-11-21T06:31:32;30.47;;;17.80;;
4323;SDS011;2175;51.018;6.994;2023-11-21T06:33:58;31.00;;;19.33;;
4323;SDS011;2175;51.018;6.994;2023-11-21T06:36:25;32.00;;;18.40;;
4323;SDS011;2175;51.018;6.994;2023-11-21T06:38:51;35.40;;;19.40;;
4323;SDS011;2175;51.018;6.994;2023-11-21T06:41:17;30.57;;;17.27;;
4323;SDS011;2175;51.018;6.994;2023-11-21T06:43:43;27.13;;;17.90;;
4323;SDS011;2175;51.018;6.994;2023-11-21T06:46:11;37.37;;;19.93;;
4323;SDS011;2175;51.018;6.994;2023-11-21T06:48:39;35.40;;;19.53;;
4323;SDS011;2175;51.018;6.994;2023-11-21T06:51:06;34.33;;;18.23;;
4323;SDS011;2175;51.018;6.994;2023-11-21T06:53:32;30.60;;;17.83;;
4323;SDS011;2175;51.018;6.994;2023-11-21T06:55:58;29.13;;;16.50;;
4323;SDS011;2175;51.018;6.994;2023-11-21T06:58:24;26.93;;;17.13;;
4323;SDS011;2175;51.018;6.994;2023-11-21T07:00:54;26.30;;;17.23;;
4323;SDS011;2175;51.018;6.994;2023-11-21T07:03:25;26.60;;;15.97;;
4323;SDS011;2175;51.018;6.994;2023-11-21T07:05:51;30.80;;;18.40;;
4323;SDS011;2175;51.018;6.994;2023-11-21T07:08:17;41.20;;;21.40;;
4323;SDS011;2175;51.018;6.994;2023-11-21T07:10:43;34.20;;;22.10;;
4323;SDS011;2175;51.018;6.994;2023-11-21T07:13:09;37.20;;;21.43;;
4323;SDS011;2175;51.018;6.994;2023-11-21T07:15:37;32.50;;;19.20;;
4323;SDS011;2175;51.018;6.994;2023-11-21T07:18:03;36.00;;;21.23;;
4323;SDS011;2175;51.018;6.994;2023-11-21T07:20:33;36.77;;;21.83;;
4323;SDS011;2175;51.018;6.994;2023-11-21T07:22:59;38.90;;;24.50;;
4323;SDS011;2175;51.018;6.994;2023-11-21T07:25:26;37.87;;;24.33;;
4323;SDS011;2175;51.018;6.994;2023-11-21T07:27:51;41.27;;;24.80;;
4323;SDS011;2175;51.018;6.994;2023-11-21T07:30:20;37.70;;;24.30;;
4323;SDS011;2175;51.018;6.994;2023-11-21T07:32:47;36.77;;;21.30;;
4323;SDS011;2175;51.018;6.994;2023-11-21T07:35:13;46.13;;;23.20;;
4323;SDS011;2175;51.018;6.994;2023-11-21T07:37:39;34.60;;;21.47;;
4323;SDS011;2175;51.018;6.994;2023-11-21T07:40:06;35.07;;;21.43;;
4323;SDS011;2175;51.018;6.994;2023-11-21T07:42:34;31.67;;;21.87;;
4323;SDS011;2175;51.018;6.994;2023-11-21T07:45:00;45.87;;;23.97;;
4323;SDS011;2175;51.018;6.994;2023-11-21T07:47:27;39.70;;;23.40;;
4323;SDS011;2175;51.018;6.994;2023-11-21T07:49:53;42.07;;;22.60;;
4323;SDS011;2175;51.018;6.994;2023-11-21T07:52:22;42.67;;;22.90;;
4323;SDS011;2175;51.018;6.994;2023-11-21T07:54:48;42.20;;;24.53;;
4323;SDS011;2175;51.018;6.994;2023-11-21T07:57:14;40.73;;;23.90;;
4323;SDS011;2175;51.018;6.994;2023-11-21T07:59:40;39.90;;;23.67;;
4323;SDS011;2175;51.018;6.994;2023-11-21T08:02:06;40.80;;;24.20;;
4323;SDS011;2175;51.018;6.994;2023-11-21T08:04:32;44.50;;;25.30;;
4323;SDS011;2175;51.018;6.994;2023-11-21T08:07:00;42.27;;;26.90;;
4323;SDS011;2175;51.018;6.994;2023-11-21T08:09:26;48.73;;;26.20;;
4323;SDS011;2175;51.018;6.994;2023-11-21T08:11:52;52.33;;;28.00;;
4323;SDS011;2175;51.018;6.994;2023-11-21T08:14:19;54.50;;;27.73;;
4323;SDS011;2175;51.018;6.994;2023-11-21T08:16:45;53.40;;;28.07;;
4323;SDS011;2175;51.018;6.994;2023-11-21T08:19:12;50.80;;;29.83;;
4323;SDS011;2175;51.018;6.994;2023-11-21T08:21:38;54.13;;;28.93;;
4323;SDS011;2175;51.018;6.994;2023-11-21T08:24:06;52.23;;;27.73;;
4323;SDS011;2175;51.018;6.994;2023-11-21T08:26:35;55.80;;;31.00;;
4323;SDS011;2175;51.018;6.994;2023-11-21T08:29:01;55.63;;;29.60;;
4323;SDS011;2175;51.018;6.994;2023-11-21T08:31:27;61.70;;;31.23;;
4323;SDS011;2175;51.018;6.994;2023-11-21T08:33:54;73.37;;;35.50;;
4323;SDS011;2175;51.018;6.994;2023-11-21T08:36:20;85.70;;;34.10;;
4323;SDS011;2175;51.018;6.994;2023-11-21T08:38:48;73.83;;;36.20;;
4323;SDS011;2175;51.018;6.994;2023-11-21T08:41:14;71.73;;;34.27;;
4323;SDS011;2175;51.018;6.994;2023-11-21T08:43:41;74.10;;;36.17;;
4323;SDS011;2175;51.018;6.994;2023-11-21T08:46:07;72.50;;;33.97;;
4323;SDS011;2175;51.018;6.994;2023-11-21T08:48:36;73.53;;;35.07;;
4323;SDS011;2175;51.018;6.994;2023-11-21T08:51:03;71.73;;;35.73;;
4323;SDS011;2175;51.018;6.994;2023-11-21T08:53:29;87.03;;;35.00;;
4323;SDS011;2175;51.018;6.994;2023-11-21T08:55:56;75.70;;;36.13;;
4323;SDS011;2175;51.018;6.994;2023-11-21T08:58:22;64.17;;;33.33;;
4323;SDS011;2175;51.018;6.994;2023-11-21T09:00:48;71.83;;;34.00;;
4323;SDS011;2175;51.018;6.994;2023-11-21T09:03:14;70.63;;;34.50;;
4323;SDS011;2175;51.018;6.994;2023-11-21T09:05:40;73.00;;;34.87;;
4323;SDS011;2175;51.018;6.994;2023-11-21T09:08:06;75.73;;;33.83;;
4323;SDS011;2175;51.018;6.994;2023-11-21T09:10:35;66.77;;;34.57;;
4323;SDS011;2175;51.018;6.994;2023-11-21T09:13:02;60.50;;;32.23;;
4323;SDS011;2175;51.018;6.994;2023-11-21T09:15:28;59.27;;;30.93;;
4323;SDS011;2175;51.018;6.994;2023-11-21T09:17:54;65.60;;;33.23;;
4323;SDS011;2175;51.018;6.994;2023-11-21T09:20:21;70.50;;;35.10;;
4323;SDS011;2175;51.018;6.994;2023-11-21T09:22:48;65.47;;;32.50;;
4323;SDS011;2175;51.018;6.994;2023-11-21T09:25:15;62.57;;;32.97;;
4323;SDS011;2175;51.018;6.994;2023-11-21T09:27:41;64.47;;;31.97;;
4323;SDS011;2175;51.018;6.994;2023-11-21T09:30:07;66.00;;;33.33;;
4323;SDS011;2175;51.018;6.994;2023-11-21T09:32:39;83.37;;;37.60;;
4323;SDS011;2175;51.018;6.994;2023-11-21T09:35:05;75.93;;;37.87;;
4323;SDS011;2175;51.018;6.994;2023-11-21T09:37:33;73.40;;;38.63;;
4323;SDS011;2175;51.018;6.994;2023-11-21T09:40:01;70.17;;;39.40;;
4323;SDS011;2175;51.018;6.994;2023-11-21T09:42:38;76.93;;;40.27;;
4323;SDS011;2175;51.018;6.994;2023-11-21T09:47:41;76.50;;;39.30;;
4323;SDS011;2175;51.018;6.994;2023-11-21T09:50:08;88.70;;;41.87;;
4323;SDS011;2175;51.018;6.994;2023-11-21T09:55:13;74.80;;;39.10;;
4323;SDS011;2175;51.018;6.994;2023-11-21T09:57:40;93.23;;;43.63;;
4323;SDS011;2175;51.018;6.994;2023-11-21T10:00:07;82.57;;;41.20;;
4323;SDS011;2175;51.018;6.994;2023-11-21T10:02:36;78.50;;;39.90;;
4323;SDS011;2175;51.018;6.994;2023-11-21T10:05:03;57.50;;;31.90;;
4323;SDS011;2175;51.018;6.994;2023-11-21T10:07:30;61.10;;;34.57;;
4323;SDS011;2175;51.018;6.994;2023-11-21T10:09:57;67.83;;;38.20;;
4323;SDS011;2175;51.018;6.994;2023-11-21T10:12:25;72.40;;;36.03;;
4323;SDS011;2175;51.018;6.994;2023-11-21T10:14:52;70.10;;;36.10;;
4323;SDS011;2175;51.018;6.994;2023-11-21T10:17:20;68.40;;;35.80;;
4323;SDS011;2175;51.018;6.994;2023-11-21T10:19:51;67.23;;;36.57;;
4323;SDS011;2175;51.018;6.994;2023-11-21T10:22:19;68.97;;;36.73;;
4323;SDS011;2175;51.018;6.994;2023-11-21T10:24:45;67.23;;;36.17;;
4323;SDS011;2175;51.018;6.994;2023-11-21T10:27:11;69.27;;;35.30;;
4323;SDS011;2175;51.018;6.994;2023-11-21T10:29:39;68.80;;;39.17;;
4323;SDS011;2175;51.018;6.994;2023-11-21T10:32:07;71.33;;;36.43;;
4323;SDS011;2175;51.018;6.994;2023-11-21T10:34:34;70.60;;;36.63;;
4323;SDS011;2175;51.018;6.994;2023-11-21T10:37:10;69.60;;;36.93;;
4323;SDS011;2175;51.018;6.994;2023-11-21T10:39:36;64.80;;;34.97;;
4323;SDS011;2175;51.018;6.994;2023-11-21T10:42:02;62.50;;;31.43;;
4323;SDS011;2175;51.018;6.994;2023-11-21T10:44:28;51.70;;;31.10;;
4323;SDS011;2175;51.018;6.994;2023-11-21T10:46:55;54.67;;;31.10;;
4323;SDS011;2175;51.018;6.994;2023-11-21T10:49:24;59.73;;;30.70;;
4323;SDS011;2175;51.018;6.994;2023-11-21T10:51:52;46.77;;;28.67;;
4323;SDS011;2175;51.018;6.994;2023-11-21T10:54:19;50.40;;;28.03;;
4323;SDS011;2175;51.018;6.994;2023-11-21T10:56:49;51.47;;;26.93;;
4323;SDS011;2175;51.018;6.994;2023-11-21T10:59:16;52.90;;;28.93;;
4323;SDS011;2175;51.018;6.994;2023-11-21T11:01:46;54.37;;;29.43;;
4323;SDS011;2175;51.018;6.994;2023-11-21T11:04:14;58.03;;;30.83;;
4323;SDS011;2175;51.018;6.994;2023-11-21T11:06:44;62.87;;;31.30;;
4323;SDS011;2175;51.018;6.994;2023-11-21T11:09:14;52.57;;;29.17;;
4323;SDS011;2175;51.018;6.994;2023-11-21T11:11:41;55.60;;;28.80;;
4323;SDS011;2175;51.018;6.994;2023-11-21T11:14:10;59.10;;;31.20;;
4323;SDS011;2175;51.018;6.994;2023-11-21T11:16:40;60.33;;;31.93;;
4323;SDS011;2175;51.018;6.994;2023-11-21T11:19:06;63.50;;;34.70;;
4323;SDS011;2175;51.018;6.994;2023-11-21T11:24:16;63.60;;;34.00;;
4323;SDS011;2175;51.018;6.994;2023-11-21T11:34:36;63.23;;;32.97;;
4323;SDS011;2175;51.018;6.994;2023-11-21T11:37:06;59.57;;;30.20;;
4323;SDS011;2175;51.018;6.994;2023-11-21T11:39:40;54.80;;;29.50;;
4323;SDS011;2175;51.018;6.994;2023-11-21T11:42:07;60.23;;;29.83;;
4323;SDS011;2175;51.018;6.994;2023-11-21T11:47:15;64.60;;;30.67;;
4323;SDS011;2175;51.018;6.994;2023-11-21T11:49:57;61.37;;;31.90;;
4323;SDS011;2175;51.018;6.994;2023-11-21T11:52:39;59.30;;;32.40;;
4323;SDS011;2175;51.018;6.994;2023-11-21T11:55:06;55.63;;;28.00;;
4323;SDS011;2175;51.018;6.994;2023-11-21T11:57:35;61.67;;;31.10;;
4323;SDS011;2175;51.018;6.994;2023-11-21T12:00:28;73.23;;;32.50;;
4323;SDS011;2175;51.018;6.994;2023-11-21T12:05:19;63.90;;;29.37;;
4323;SDS011;2175;51.018;6.994;2023-11-21T12:07:53;55.97;;;30.47;;
4323;SDS011;2175;51.018;6.994;2023-11-21T12:10:23;54.37;;;30.97;;
4323;SDS011;2175;51.018;6.994;2023-11-21T12:13:11;67.00;;;32.30;;
4323;SDS011;2175;51.018;6.994;2023-11-21T12:15:39;62.67;;;31.80;;
4323;SDS011;2175;51.018;6.994;2023-11-21T12:18:06;63.40;;;33.30;;
4323;SDS011;2175;51.018;6.994;2023-11-21T12:20:32;61.63;;;32.03;;
4323;SDS011;2175;51.018;6.994;2023-11-21T12:23:03;67.63;;;32.57;;
4323;SDS011;2175;51.018;6.994;2023-11-21T12:25:30;70.90;;;34.50;;
4323;SDS011;2175;51.018;6.994;2023-11-21T12:27:58;70.13;;;32.20;;
4323;SDS011;2175;51.018;6.994;2023-11-21T12:30:25;65.50;;;32.17;;
4323;SDS011;2175;51.018;6.994;2023-11-21T12:32:54;62.47;;;28.90;;
4323;SDS011;2175;51.018;6.994;2023-11-21T12:35:27;45.40;;;25.23;;
4323;SDS011;2175;51.018;6.994;2023-11-21T12:37:57;61.47;;;31.63;;
4323;SDS011;2175;51.018;6.994;2023-11-21T12:40:23;72.00;;;31.63;;
4323;SDS011;2175;51.018;6.994;2023-11-21T12:42:57;72.23;;;32.80;;
4323;SDS011;2175;51.018;6.994;2023-11-21T12:45:24;74.97;;;33.30;;
4323;SDS011;2175;51.018;6.994;2023-11-21T12:50:25;65.20;;;31.70;;
4323;SDS011;2175;51.018;6.994;2023-11-21T12:52:58;67.30;;;32.00;;
4323;SDS011;2175;51.018;6.994;2023-11-21T12:55:24;72.80;;;31.90;;
4323;SDS011;2175;51.018;6.994;2023-11-21T12:57:54;68.13;;;31.40;;
4323;SDS011;2175;51.018;6.994;2023-11-21T13:00:27;68.43;;;30.47;;
4323;SDS011;2175;51.018;6.994;2023-11-21T13:02:55;60.93;;;29.37;;
4323;SDS011;2175;51.018;6.994;2023-11-21T13:05:27;59.73;;;27.70;;
4323;SDS011;2175;51.018;6.994;2023-11-21T13:07:54;55.87;;;28.23;;
4323;SDS011;2175;51.018;6.994;2023-11-21T13:10:23;57.30;;;29.87;;
4323;SDS011;2175;51.018;6.994;2023-11-21T13:12:55;56.47;;;28.00;;
4323;SDS011;2175;51.018;6.994;2023-11-21T13:15:23;59.30;;;28.07;;
4323;SDS011;2175;51.018;6.994;2023-11-21T13:17:49;63.60;;;28.70;;
4323;SDS011;2175;51.018;6.994;2023-11-21T13:20:16;63.50;;;31.20;;
4323;SDS011;2175;51.018;6.994;2023-11-21T13:22:57;64.00;;;30.90;;
4323;SDS011;2175;51.018;6.994;2023-11-21T13:25:25;55.00;;;28.77;;
4323;SDS011;2175;51.018;6.994;2023-11-21T13:27:56;59.23;;;30.40;;
4323;SDS011;2175;51.018;6.994;2023-11-21T13:30:23;71.93;;;32.43;;
4323;SDS011;2175;51.018;6.994;2023-11-21T13:32:56;58.40;;;30.73;;
4323;SDS011;2175;51.018;6.994;2023-11-21T13:35:30;72.40;;;32.27;;
4323;SDS011;2175;51.018;6.994;2023-11-21T13:38:12;70.13;;;32.73;;
4323;SDS011;2175;51.018;6.994;2023-11-21T13:40:39;67.73;;;31.47;;
4323;SDS011;2175;51.018;6.994;2023-11-21T13:43:09;54.93;;;26.90;;
4323;SDS011;2175;51.018;6.994;2023-11-21T13:45:39;59.73;;;29.93;;
4323;SDS011;2175;51.018;6.994;2023-11-21T13:48:06;52.73;;;27.47;;
4323;SDS011;2175;51.018;6.994;2023-11-21T13:50:38;67.07;;;30.67;;
4323;SDS011;2175;51.018;6.994;2023-11-21T13:53:09;55.17;;;28.20;;
4323;SDS011;2175;51.018;6.994;2023-11-21T13:55:44;52.30;;;26.00;;
4323;SDS011;2175;51.018;6.994;2023-11-21T13:58:10;56.10;;;28.47;;
4323;SDS011;2175;51.018;6.994;2023-11-21T14:00:43;60.40;;;29.37;;
4323;SDS011;2175;51.018;6.994;2023-11-21T14:03:20;67.13;;;28.47;;
4323;SDS011;2175;51.018;6.994;2023-11-21T14:05:47;66.63;;;32.03;;
4323;SDS011;2175;51.018;6.994;2023-11-21T14:08:17;67.77;;;31.47;;
4323;SDS011;2175;51.018;6.994;2023-11-21T14:10:46;77.33;;;33.30;;
4323;SDS011;2175;51.018;6.994;2023-11-21T14:13:15;85.70;;;33.80;;
4323;SDS011;2175;51.018;6.994;2023-11-21T14:15:41;64.93;;;32.43;;
4323;SDS011;2175;51.018;6.994;2023-11-21T14:18:11;74.40;;;34.50;;
4323;SDS011;2175;51.018;6.994;2023-11-21T14:20:40;76.30;;;33.93;;
4323;SDS011;2175;51.018;6.994;2023-11-21T14:23:06;80.03;;;35.17;;
4323;SDS011;2175;51.018;6.994;2023-11-21T14:25:36;80.77;;;33.90;;
4323;SDS011;2175;51.018;6.994;2023-11-21T14:28:03;76.07;;;33.90;;
4323;SDS011;2175;51.018;6.994;2023-11-21T14:30:31;78.90;;;32.77;;
4323;SDS011;2175;51.018;6.994;2023-11-21T14:32:59;75.80;;;34.83;;
4323;SDS011;2175;51.018;6.994;2023-11-21T14:35:25;72.37;;;34.10;;
4323;SDS011;2175;51.018;6.994;2023-11-21T14:37:52;82.43;;;35.77;;
4323;SDS011;2175;51.018;6.994;2023-11-21T14:40:18;84.60;;;35.60;;
4323;SDS011;2175;51.018;6.994;2023-11-21T14:42:49;72.83;;;32.40;;
4323;SDS011;2175;51.018;6.994;2023-11-21T14:45:18;72.73;;;35.00;;
4323;SDS011;2175;51.018;6.994;2023-11-21T14:47:48;76.20;;;35.57;;
4323;SDS011;2175;51.018;6.994;2023-11-21T14:50:25;75.77;;;36.30;;
4323;SDS011;2175;51.018;6.994;2023-11-21T14:53:11;84.17;;;36.73;;
4323;SDS011;2175;51.018;6.994;2023-11-21T14:55:38;72.63;;;34.47;;
4323;SDS011;2175;51.018;6.994;2023-11-21T14:58:24;78.93;;;35.70;;
4323;SDS011;2175;51.018;6.994;2023-11-21T15:00:56;82.10;;;37.17;;
4323;SDS011;2175;51.018;6.994;2023-11-21T15:03:26;80.93;;;33.80;;
4323;SDS011;2175;51.018;6.994;2023-11-21T15:05:58;77.33;;;34.00;;
4323;SDS011;2175;51.018;6.994;2023-11-21T15:08:35;83.40;;;37.03;;
4323;SDS011;2175;51.018;6.994;2023-11-21T15:11:01;91.33;;;41.17;;
4323;SDS011;2175;51.018;6.994;2023-11-21T15:13:32;76.23;;;35.90;;
4323;SDS011;2175;51.018;6.994;2023-11-21T15:15:58;83.47;;;36.50;;
4323;SDS011;2175;51.018;6.994;2023-11-21T15:18:32;82.53;;;37.93;;